Wetterdaten für den Flughafen Lübeck Blankensee


ADDS - METARS form results Aviation Digital Data Service (ADDS) Output produced by METARs form (1836 UTC 03 June 2020)
found at http://www.aviationweather.gov/metar/data/
 
EDHL 031820Z 29006KT 9999 VCSH FEW028CB 18/11 Q1003
TAF EDHL 031700Z 0318/0321 05009KT CAVOK PROB30 TEMPO 0318/0321 12015G25KT TSRA SCT030CB BECMG 0318/0320 08004KT

Nord: Hamburg, Lübeck
Ost: Schwerin, Rostock
Süd: Hannover
West: Bremen, Nordhloz

 

Copyright © 2016 Flugschule Hohensee